sensor_id;sensor_type;location;lat;lon;timestamp;P1;P2;P0
49064;PMS5003;34876;51.464;-0.150;2022-12-19T00:00:00;22;21;
49064;PMS5003;34876;51.464;-0.150;2022-12-19T00:02:29;29;26;
49064;PMS5003;34876;51.464;-0.150;2022-12-19T00:04:59;22;19;
49064;PMS5003;34876;51.464;-0.150;2022-12-19T00:07:28;24;22;
49064;PMS5003;34876;51.464;-0.150;2022-12-19T00:09:56;21;18;
49064;PMS5003;34876;51.464;-0.150;2022-12-19T00:12:26;22;21;
49064;PMS5003;34876;51.464;-0.150;2022-12-19T00:14:55;24;24;
49064;PMS5003;34876;51.464;-0.150;2022-12-19T00:17:24;27;26;
49064;PMS5003;34876;51.464;-0.150;2022-12-19T00:19:53;28;25;
49064;PMS5003;34876;51.464;-0.150;2022-12-19T00:22:22;29;24;
49064;PMS5003;34876;51.464;-0.150;2022-12-19T00:24:51;24;23;
49064;PMS5003;34876;51.464;-0.150;2022-12-19T00:27:19;25;23;
49064;PMS5003;34876;51.464;-0.150;2022-12-19T00:29:48;22;21;
49064;PMS5003;34876;51.464;-0.150;2022-12-19T00:32:17;22;20;
49064;PMS5003;34876;51.464;-0.150;2022-12-19T00:34:46;27;23;
49064;PMS5003;34876;51.464;-0.150;2022-12-19T00:37:15;22;19;
49064;PMS5003;34876;51.464;-0.150;2022-12-19T00:39:44;23;22;
49064;PMS5003;34876;51.464;-0.150;2022-12-19T00:42:13;22;20;
49064;PMS5003;34876;51.464;-0.150;2022-12-19T00:44:41;20;18;
49064;PMS5003;34876;51.464;-0.150;2022-12-19T00:47:10;24;20;
49064;PMS5003;34876;51.464;-0.150;2022-12-19T00:49:39;21;21;
49064;PMS5003;34876;51.464;-0.150;2022-12-19T00:52:09;22;22;
49064;PMS5003;34876;51.464;-0.150;2022-12-19T00:54:38;25;21;
49064;PMS5003;34876;51.464;-0.150;2022-12-19T00:57:06;22;21;
49064;PMS5003;34876;51.464;-0.150;2022-12-19T00:59:35;25;23;
49064;PMS5003;34876;51.464;-0.150;2022-12-19T01:03:30;5;5;
49064;PMS5003;34876;51.464;-0.150;2022-12-19T01:05:59;4;4;
49064;PMS5003;34876;51.464;-0.150;2022-12-19T01:08:29;6;6;
49064;PMS5003;34876;51.464;-0.150;2022-12-19T01:10:59;4;4;
49064;PMS5003;34876;51.464;-0.150;2022-12-19T01:13:28;5;5;
49064;PMS5003;34876;51.464;-0.150;2022-12-19T01:16:00;7;5;
49064;PMS5003;34876;51.464;-0.150;2022-12-19T01:18:31;5;5;
49064;PMS5003;34876;51.464;-0.150;2022-12-19T01:21:02;5;4;
49064;PMS5003;34876;51.464;-0.150;2022-12-19T01:23:32;5;3;
49064;PMS5003;34876;51.464;-0.150;2022-12-19T01:26:03;5;5;
49064;PMS5003;34876;51.464;-0.150;2022-12-19T01:28:32;6;5;
49064;PMS5003;34876;51.464;-0.150;2022-12-19T01:31:03;5;5;
49064;PMS5003;34876;51.464;-0.150;2022-12-19T01:33:32;4;4;
49064;PMS5003;34876;51.464;-0.150;2022-12-19T01:36:01;6;6;
49064;PMS5003;34876;51.464;-0.150;2022-12-19T01:38:29;5;5;
49064;PMS5003;34876;51.464;-0.150;2022-12-19T01:40:59;4;4;
49064;PMS5003;34876;51.464;-0.150;2022-12-19T01:43:30;3;3;
49064;PMS5003;34876;51.464;-0.150;2022-12-19T01:46:00;5;5;
49064;PMS5003;34876;51.464;-0.150;2022-12-19T01:48:31;5;5;
49064;PMS5003;34876;51.464;-0.150;2022-12-19T01:51:03;4;4;
49064;PMS5003;34876;51.464;-0.150;2022-12-19T01:53:39;5;4;
49064;PMS5003;34876;51.464;-0.150;2022-12-19T01:56:13;3;3;
49064;PMS5003;34876;51.464;-0.150;2022-12-19T01:58:44;6;6;
49064;PMS5003;34876;51.464;-0.150;2022-12-19T02:01:14;2;2;
49064;PMS5003;34876;51.464;-0.150;2022-12-19T02:03:45;5;5;
49064;PMS5003;34876;51.464;-0.150;2022-12-19T02:06:15;3;3;
49064;PMS5003;34876;51.464;-0.150;2022-12-19T02:08:45;4;4;
49064;PMS5003;34876;51.464;-0.150;2022-12-19T02:11:15;3;3;
49064;PMS5003;34876;51.464;-0.150;2022-12-19T02:13:44;3;3;
49064;PMS5003;34876;51.464;-0.150;2022-12-19T02:16:16;2;1;
49064;PMS5003;34876;51.464;-0.150;2022-12-19T02:18:55;2;2;
49064;PMS5003;34876;51.464;-0.150;2022-12-19T02:21:37;5;5;
49064;PMS5003;34876;51.464;-0.150;2022-12-19T02:24:28;4;4;
49064;PMS5003;34876;51.464;-0.150;2022-12-19T02:25:14;4;4;
49064;PMS5003;34876;51.464;-0.150;2022-12-19T02:28:04;3;3;
49064;PMS5003;34876;51.464;-0.150;2022-12-19T02:30:53;5;3;
49064;PMS5003;34876;51.464;-0.150;2022-12-19T02:33:29;4;4;
49064;PMS5003;34876;51.464;-0.150;2022-12-19T02:36:04;4;4;
49064;PMS5003;34876;51.464;-0.150;2022-12-19T02:38:39;2;2;
49064;PMS5003;34876;51.464;-0.150;2022-12-19T02:41:15;4;4;
49064;PMS5003;34876;51.464;-0.150;2022-12-19T02:43:49;3;2;
49064;PMS5003;34876;51.464;-0.150;2022-12-19T02:46:22;4;4;
49064;PMS5003;34876;51.464;-0.150;2022-12-19T02:48:52;4;3;
49064;PMS5003;34876;51.464;-0.150;2022-12-19T02:51:21;4;3;
49064;PMS5003;34876;51.464;-0.150;2022-12-19T02:53:50;4;3;
49064;PMS5003;34876;51.464;-0.150;2022-12-19T02:56:24;4;4;
49064;PMS5003;34876;51.464;-0.150;2022-12-19T02:59:04;4;4;
49064;PMS5003;34876;51.464;-0.150;2022-12-19T03:01:43;5;3;
49064;PMS5003;34876;51.464;-0.150;2022-12-19T03:04:19;5;4;
49064;PMS5003;34876;51.464;-0.150;2022-12-19T03:07:00;3;3;
49064;PMS5003;34876;51.464;-0.150;2022-12-19T03:09:37;6;6;
49064;PMS5003;34876;51.464;-0.150;2022-12-19T03:12:15;4;4;
49064;PMS5003;34876;51.464;-0.150;2022-12-19T03:14:49;4;4;
49064;PMS5003;34876;51.464;-0.150;2022-12-19T03:17:20;6;6;
49064;PMS5003;34876;51.464;-0.150;2022-12-19T03:19:49;6;4;
49064;PMS5003;34876;51.464;-0.150;2022-12-19T03:22:18;4;3;
49064;PMS5003;34876;51.464;-0.150;2022-12-19T03:24:47;6;6;
49064;PMS5003;34876;51.464;-0.150;2022-12-19T03:27:17;4;4;
49064;PMS5003;34876;51.464;-0.150;2022-12-19T03:29:54;4;4;
49064;PMS5003;34876;51.464;-0.150;2022-12-19T03:32:28;6;5;
49064;PMS5003;34876;51.464;-0.150;2022-12-19T03:35:02;6;6;
49064;PMS5003;34876;51.464;-0.150;2022-12-19T03:37:33;8;6;
49064;PMS5003;34876;51.464;-0.150;2022-12-19T03:40:05;5;5;
49064;PMS5003;34876;51.464;-0.150;2022-12-19T03:42:38;5;5;
49064;PMS5003;34876;51.464;-0.150;2022-12-19T03:45:09;8;7;
49064;PMS5003;34876;51.464;-0.150;2022-12-19T03:47:41;6;3;
49064;PMS5003;34876;51.464;-0.150;2022-12-19T03:50:15;11;10;
49064;PMS5003;34876;51.464;-0.150;2022-12-19T03:52:44;8;8;
49064;PMS5003;34876;51.464;-0.150;2022-12-19T03:55:18;9;9;
49064;PMS5003;34876;51.464;-0.150;2022-12-19T03:57:55;8;8;
49064;PMS5003;34876;51.464;-0.150;2022-12-19T04:00:26;8;8;
49064;PMS5003;34876;51.464;-0.150;2022-12-19T04:02:58;9;9;
49064;PMS5003;34876;51.464;-0.150;2022-12-19T04:05:28;10;9;
49064;PMS5003;34876;51.464;-0.150;2022-12-19T04:07:58;14;14;
49064;PMS5003;34876;51.464;-0.150;2022-12-19T04:10:30;11;10;
49064;PMS5003;34876;51.464;-0.150;2022-12-19T04:13:07;18;17;
49064;PMS5003;34876;51.464;-0.150;2022-12-19T04:15:41;13;12;
49064;PMS5003;34876;51.464;-0.150;2022-12-19T04:18:16;10;10;
49064;PMS5003;34876;51.464;-0.150;2022-12-19T04:20:48;19;19;
49064;PMS5003;34876;51.464;-0.150;2022-12-19T04:23:27;13;12;
49064;PMS5003;34876;51.464;-0.150;2022-12-19T04:26:00;14;12;
49064;PMS5003;34876;51.464;-0.150;2022-12-19T04:28:32;6;6;
49064;PMS5003;34876;51.464;-0.150;2022-12-19T04:31:06;14;13;
49064;PMS5003;34876;51.464;-0.150;2022-12-19T04:33:38;17;15;
49064;PMS5003;34876;51.464;-0.150;2022-12-19T04:36:07;9;9;
49064;PMS5003;34876;51.464;-0.150;2022-12-19T04:38:37;13;13;
49064;PMS5003;34876;51.464;-0.150;2022-12-19T04:41:06;13;10;
49064;PMS5003;34876;51.464;-0.150;2022-12-19T04:43:35;8;8;
49064;PMS5003;34876;51.464;-0.150;2022-12-19T04:46:05;11;11;
49064;PMS5003;34876;51.464;-0.150;2022-12-19T04:48:34;10;8;
49064;PMS5003;34876;51.464;-0.150;2022-12-19T04:51:03;23;19;
49064;PMS5003;34876;51.464;-0.150;2022-12-19T04:53:32;19;18;
49064;PMS5003;34876;51.464;-0.150;2022-12-19T04:56:01;17;17;
49064;PMS5003;34876;51.464;-0.150;2022-12-19T04:58:31;13;11;
49064;PMS5003;34876;51.464;-0.150;2022-12-19T05:01:00;8;8;
49064;PMS5003;34876;51.464;-0.150;2022-12-19T05:03:30;12;12;
49064;PMS5003;34876;51.464;-0.150;2022-12-19T05:06:03;15;12;
49064;PMS5003;34876;51.464;-0.150;2022-12-19T05:08:34;13;13;
49064;PMS5003;34876;51.464;-0.150;2022-12-19T05:11:03;19;18;
49064;PMS5003;34876;51.464;-0.150;2022-12-19T05:13:34;17;17;
49064;PMS5003;34876;51.464;-0.150;2022-12-19T05:16:03;22;20;
49064;PMS5003;34876;51.464;-0.150;2022-12-19T05:18:35;18;17;
49064;PMS5003;34876;51.464;-0.150;2022-12-19T05:21:05;20;15;
49064;PMS5003;34876;51.464;-0.150;2022-12-19T05:23:34;20;19;
49064;PMS5003;34876;51.464;-0.150;2022-12-19T05:26:04;19;18;
49064;PMS5003;34876;51.464;-0.150;2022-12-19T05:28:34;24;21;
49064;PMS5003;34876;51.464;-0.150;2022-12-19T05:31:03;18;16;
49064;PMS5003;34876;51.464;-0.150;2022-12-19T05:33:34;16;16;
49064;PMS5003;34876;51.464;-0.150;2022-12-19T05:36:04;22;22;
49064;PMS5003;34876;51.464;-0.150;2022-12-19T05:38:34;16;15;
49064;PMS5003;34876;51.464;-0.150;2022-12-19T05:41:05;21;21;
49064;PMS5003;34876;51.464;-0.150;2022-12-19T05:43:34;21;21;
49064;PMS5003;34876;51.464;-0.150;2022-12-19T05:46:03;15;14;
49064;PMS5003;34876;51.464;-0.150;2022-12-19T05:48:33;20;17;
49064;PMS5003;34876;51.464;-0.150;2022-12-19T05:51:02;20;20;
49064;PMS5003;34876;51.464;-0.150;2022-12-19T05:53:31;26;22;
49064;PMS5003;34876;51.464;-0.150;2022-12-19T05:56:03;17;17;
49064;PMS5003;34876;51.464;-0.150;2022-12-19T05:58:33;18;18;
49064;PMS5003;34876;51.464;-0.150;2022-12-19T06:01:03;22;19;
49064;PMS5003;34876;51.464;-0.150;2022-12-19T06:03:33;21;17;
49064;PMS5003;34876;51.464;-0.150;2022-12-19T06:06:02;18;18;
49064;PMS5003;34876;51.464;-0.150;2022-12-19T06:08:32;15;15;
49064;PMS5003;34876;51.464;-0.150;2022-12-19T06:11:02;20;20;
49064;PMS5003;34876;51.464;-0.150;2022-12-19T06:13:33;17;17;
49064;PMS5003;34876;51.464;-0.150;2022-12-19T06:16:03;24;23;
49064;PMS5003;34876;51.464;-0.150;2022-12-19T06:18:34;11;11;
49064;PMS5003;34876;51.464;-0.150;2022-12-19T06:21:04;17;16;
49064;PMS5003;34876;51.464;-0.150;2022-12-19T06:23:34;24;22;
49064;PMS5003;34876;51.464;-0.150;2022-12-19T06:26:05;17;16;
49064;PMS5003;34876;51.464;-0.150;2022-12-19T06:28:34;8;8;
49064;PMS5003;34876;51.464;-0.150;2022-12-19T06:31:04;15;14;
49064;PMS5003;34876;51.464;-0.150;2022-12-19T06:33:35;13;13;
49064;PMS5003;34876;51.464;-0.150;2022-12-19T06:36:04;20;19;
49064;PMS5003;34876;51.464;-0.150;2022-12-19T06:38:35;15;14;
49064;PMS5003;34876;51.464;-0.150;2022-12-19T06:41:04;23;21;
49064;PMS5003;34876;51.464;-0.150;2022-12-19T06:43:33;20;19;
49064;PMS5003;34876;51.464;-0.150;2022-12-19T06:46:01;20;20;
49064;PMS5003;34876;51.464;-0.150;2022-12-19T06:48:30;13;13;
49064;PMS5003;34876;51.464;-0.150;2022-12-19T06:50:59;9;9;
49064;PMS5003;34876;51.464;-0.150;2022-12-19T06:53:29;18;18;
49064;PMS5003;34876;51.464;-0.150;2022-12-19T06:55:58;15;15;
49064;PMS5003;34876;51.464;-0.150;2022-12-19T06:58:27;12;12;
49064;PMS5003;34876;51.464;-0.150;2022-12-19T07:00:55;20;20;
49064;PMS5003;34876;51.464;-0.150;2022-12-19T07:03:25;18;16;
49064;PMS5003;34876;51.464;-0.150;2022-12-19T07:06:00;16;16;
49064;PMS5003;34876;51.464;-0.150;2022-12-19T07:08:29;9;8;
49064;PMS5003;34876;51.464;-0.150;2022-12-19T07:10:58;9;8;
49064;PMS5003;34876;51.464;-0.150;2022-12-19T07:13:28;19;17;
49064;PMS5003;34876;51.464;-0.150;2022-12-19T07:15:57;9;7;
49064;PMS5003;34876;51.464;-0.150;2022-12-19T07:18:30;22;22;
49064;PMS5003;34876;51.464;-0.150;2022-12-19T07:21:01;11;11;
49064;PMS5003;34876;51.464;-0.150;2022-12-19T07:23:32;14;12;
49064;PMS5003;34876;51.464;-0.150;2022-12-19T07:26:02;20;19;
49064;PMS5003;34876;51.464;-0.150;2022-12-19T07:28:31;14;14;
49064;PMS5003;34876;51.464;-0.150;2022-12-19T07:31:02;16;15;
49064;PMS5003;34876;51.464;-0.150;2022-12-19T07:33:31;10;9;
49064;PMS5003;34876;51.464;-0.150;2022-12-19T07:36:00;16;15;
49064;PMS5003;34876;51.464;-0.150;2022-12-19T07:38:29;17;16;
49064;PMS5003;34876;51.464;-0.150;2022-12-19T07:40:59;21;18;
49064;PMS5003;34876;51.464;-0.150;2022-12-19T07:43:30;20;20;
49064;PMS5003;34876;51.464;-0.150;2022-12-19T07:45:59;14;13;
49064;PMS5003;34876;51.464;-0.150;2022-12-19T07:48:29;23;23;
49064;PMS5003;34876;51.464;-0.150;2022-12-19T07:50:58;20;18;
49064;PMS5003;34876;51.464;-0.150;2022-12-19T07:53:27;17;17;
49064;PMS5003;34876;51.464;-0.150;2022-12-19T07:55:55;11;11;
49064;PMS5003;34876;51.464;-0.150;2022-12-19T07:58:24;18;18;
49064;PMS5003;34876;51.464;-0.150;2022-12-19T08:00:54;18;14;
49064;PMS5003;34876;51.464;-0.150;2022-12-19T08:03:23;13;13;
49064;PMS5003;34876;51.464;-0.150;2022-12-19T08:05:57;18;18;
49064;PMS5003;34876;51.464;-0.150;2022-12-19T08:08:27;11;11;
49064;PMS5003;34876;51.464;-0.150;2022-12-19T08:11:04;16;16;
49064;PMS5003;34876;51.464;-0.150;2022-12-19T08:13:36;12;11;
49064;PMS5003;34876;51.464;-0.150;2022-12-19T08:16:05;20;20;
49064;PMS5003;34876;51.464;-0.150;2022-12-19T08:18:35;17;15;
49064;PMS5003;34876;51.464;-0.150;2022-12-19T08:21:06;23;21;
49064;PMS5003;34876;51.464;-0.150;2022-12-19T08:23:35;14;13;
49064;PMS5003;34876;51.464;-0.150;2022-12-19T08:26:06;17;17;
49064;PMS5003;34876;51.464;-0.150;2022-12-19T08:28:36;13;13;
49064;PMS5003;34876;51.464;-0.150;2022-12-19T08:31:05;12;12;
49064;PMS5003;34876;51.464;-0.150;2022-12-19T08:33:36;9;9;
49064;PMS5003;34876;51.464;-0.150;2022-12-19T08:36:06;11;11;
49064;PMS5003;34876;51.464;-0.150;2022-12-19T08:38:37;13;13;
49064;PMS5003;34876;51.464;-0.150;2022-12-19T08:41:07;12;12;
49064;PMS5003;34876;51.464;-0.150;2022-12-19T08:43:36;15;15;
49064;PMS5003;34876;51.464;-0.150;2022-12-19T08:46:06;8;8;
49064;PMS5003;34876;51.464;-0.150;2022-12-19T08:48:36;13;12;
49064;PMS5003;34876;51.464;-0.150;2022-12-19T08:51:06;14;14;
49064;PMS5003;34876;51.464;-0.150;2022-12-19T08:53:37;13;13;
49064;PMS5003;34876;51.464;-0.150;2022-12-19T08:56:09;14;13;
49064;PMS5003;34876;51.464;-0.150;2022-12-19T08:58:40;9;9;
49064;PMS5003;34876;51.464;-0.150;2022-12-19T09:01:13;19;17;
49064;PMS5003;34876;51.464;-0.150;2022-12-19T09:03:43;10;10;
49064;PMS5003;34876;51.464;-0.150;2022-12-19T09:06:13;15;14;
49064;PMS5003;34876;51.464;-0.150;2022-12-19T09:08:42;13;12;
49064;PMS5003;34876;51.464;-0.150;2022-12-19T09:11:13;14;11;
49064;PMS5003;34876;51.464;-0.150;2022-12-19T09:13:43;14;14;
49064;PMS5003;34876;51.464;-0.150;2022-12-19T09:16:15;14;12;
49064;PMS5003;34876;51.464;-0.150;2022-12-19T09:18:46;8;8;
49064;PMS5003;34876;51.464;-0.150;2022-12-19T09:21:16;13;11;
49064;PMS5003;34876;51.464;-0.150;2022-12-19T09:23:46;17;16;
49064;PMS5003;34876;51.464;-0.150;2022-12-19T09:26:16;10;10;
49064;PMS5003;34876;51.464;-0.150;2022-12-19T09:28:46;13;12;
49064;PMS5003;34876;51.464;-0.150;2022-12-19T09:31:16;7;7;
49064;PMS5003;34876;51.464;-0.150;2022-12-19T09:33:48;9;9;
49064;PMS5003;34876;51.464;-0.150;2022-12-19T09:36:17;7;7;
49064;PMS5003;34876;51.464;-0.150;2022-12-19T09:38:49;10;10;
49064;PMS5003;34876;51.464;-0.150;2022-12-19T09:42:29;12;11;
49064;PMS5003;34876;51.464;-0.150;2022-12-19T09:45:12;17;17;
49064;PMS5003;34876;51.464;-0.150;2022-12-19T09:47:54;11;11;
49064;PMS5003;34876;51.464;-0.150;2022-12-19T09:50:28;11;10;
49064;PMS5003;34876;51.464;-0.150;2022-12-19T09:53:05;10;10;
49064;PMS5003;34876;51.464;-0.150;2022-12-19T09:55:40;10;10;
49064;PMS5003;34876;51.464;-0.150;2022-12-19T09:58:12;7;7;
49064;PMS5003;34876;51.464;-0.150;2022-12-19T10:00:46;5;5;
49064;PMS5003;34876;51.464;-0.150;2022-12-19T10:03:20;8;8;
49064;PMS5003;34876;51.464;-0.150;2022-12-19T10:05:54;11;11;
49064;PMS5003;34876;51.464;-0.150;2022-12-19T10:08:29;9;9;
49064;PMS5003;34876;51.464;-0.150;2022-12-19T10:11:04;10;10;
49064;PMS5003;34876;51.464;-0.150;2022-12-19T10:13:41;8;7;
49064;PMS5003;34876;51.464;-0.150;2022-12-19T10:16:24;9;9;
49064;PMS5003;34876;51.464;-0.150;2022-12-19T10:19:04;11;11;
49064;PMS5003;34876;51.464;-0.150;2022-12-19T10:21:35;7;7;
49064;PMS5003;34876;51.464;-0.150;2022-12-19T10:24:14;8;7;
49064;PMS5003;34876;51.464;-0.150;2022-12-19T10:26:56;7;7;
49064;PMS5003;34876;51.464;-0.150;2022-12-19T10:29:36;9;9;
49064;PMS5003;34876;51.464;-0.150;2022-12-19T10:32:16;7;7;
49064;PMS5003;34876;51.464;-0.150;2022-12-19T10:34:52;7;7;
49064;PMS5003;34876;51.464;-0.150;2022-12-19T10:37:24;8;8;
49064;PMS5003;34876;51.464;-0.150;2022-12-19T10:39:58;8;7;
49064;PMS5003;34876;51.464;-0.150;2022-12-19T10:42:34;12;12;
49064;PMS5003;34876;51.464;-0.150;2022-12-19T10:45:12;5;5;
49064;PMS5003;34876;51.464;-0.150;2022-12-19T10:47:43;6;6;
49064;PMS5003;34876;51.464;-0.150;2022-12-19T10:50:16;8;8;
49064;PMS5003;34876;51.464;-0.150;2022-12-19T10:52:50;8;8;
49064;PMS5003;34876;51.464;-0.150;2022-12-19T10:55:33;8;8;
49064;PMS5003;34876;51.464;-0.150;2022-12-19T10:58:18;8;8;
49064;PMS5003;34876;51.464;-0.150;2022-12-19T11:01:00;6;6;
49064;PMS5003;34876;51.464;-0.150;2022-12-19T11:03:32;8;7;
49064;PMS5003;34876;51.464;-0.150;2022-12-19T11:06:02;6;6;
49064;PMS5003;34876;51.464;-0.150;2022-12-19T11:08:33;7;7;
49064;PMS5003;34876;51.464;-0.150;2022-12-19T11:11:12;6;6;
49064;PMS5003;34876;51.464;-0.150;2022-12-19T11:13:42;8;7;
49064;PMS5003;34876;51.464;-0.150;2022-12-19T11:16:12;11;9;
49064;PMS5003;34876;51.464;-0.150;2022-12-19T11:18:50;8;6;
49064;PMS5003;34876;51.464;-0.150;2022-12-19T11:21:20;5;5;
49064;PMS5003;34876;51.464;-0.150;2022-12-19T11:23:59;6;6;
49064;PMS5003;34876;51.464;-0.150;2022-12-19T11:26:32;7;7;
49064;PMS5003;34876;51.464;-0.150;2022-12-19T11:29:16;5;5;
49064;PMS5003;34876;51.464;-0.150;2022-12-19T11:31:49;6;5;
49064;PMS5003;34876;51.464;-0.150;2022-12-19T11:34:25;8;7;
49064;PMS5003;34876;51.464;-0.150;2022-12-19T11:36:57;7;7;
49064;PMS5003;34876;51.464;-0.150;2022-12-19T11:39:36;5;5;
49064;PMS5003;34876;51.464;-0.150;2022-12-19T11:42:15;6;6;
49064;PMS5003;34876;51.464;-0.150;2022-12-19T11:44:52;4;4;
49064;PMS5003;34876;51.464;-0.150;2022-12-19T11:47:30;6;6;
49064;PMS5003;34876;51.464;-0.150;2022-12-19T11:50:10;5;5;
49064;PMS5003;34876;51.464;-0.150;2022-12-19T11:52:45;7;6;
49064;PMS5003;34876;51.464;-0.150;2022-12-19T11:55:21;4;4;
49064;PMS5003;34876;51.464;-0.150;2022-12-19T11:57:53;5;5;
49064;PMS5003;34876;51.464;-0.150;2022-12-19T12:00:23;5;5;
49064;PMS5003;34876;51.464;-0.150;2022-12-19T12:02:58;4;4;
49064;PMS5003;34876;51.464;-0.150;2022-12-19T12:06:11;4;3;
49064;PMS5003;34876;51.464;-0.150;2022-12-19T12:08:46;6;6;
49064;PMS5003;34876;51.464;-0.150;2022-12-19T12:11:23;6;5;
49064;PMS5003;34876;51.464;-0.150;2022-12-19T12:14:00;6;6;
49064;PMS5003;34876;51.464;-0.150;2022-12-19T12:16:45;6;6;
49064;PMS5003;34876;51.464;-0.150;2022-12-19T12:19:26;5;5;
49064;PMS5003;34876;51.464;-0.150;2022-12-19T12:22:10;4;4;
49064;PMS5003;34876;51.464;-0.150;2022-12-19T12:24:53;4;4;
49064;PMS5003;34876;51.464;-0.150;2022-12-19T12:27:34;5;5;
49064;PMS5003;34876;51.464;-0.150;2022-12-19T12:30:12;5;5;
49064;PMS5003;34876;51.464;-0.150;2022-12-19T12:32:48;5;5;
49064;PMS5003;34876;51.464;-0.150;2022-12-19T12:35:31;4;4;
49064;PMS5003;34876;51.464;-0.150;2022-12-19T12:38:08;4;4;
49064;PMS5003;34876;51.464;-0.150;2022-12-19T12:40:58;6;6;
49064;PMS5003;34876;51.464;-0.150;2022-12-19T12:43:40;6;6;
49064;PMS5003;34876;51.464;-0.150;2022-12-19T12:46:19;5;4;
49064;PMS5003;34876;51.464;-0.150;2022-12-19T12:48:52;4;4;
49064;PMS5003;34876;51.464;-0.150;2022-12-19T12:51:27;3;3;
49064;PMS5003;34876;51.464;-0.150;2022-12-19T12:54:01;4;4;
49064;PMS5003;34876;51.464;-0.150;2022-12-19T12:56:32;6;5;
49064;PMS5003;34876;51.464;-0.150;2022-12-19T12:59:05;4;4;
49064;PMS5003;34876;51.464;-0.150;2022-12-19T13:01:53;4;3;
49064;PMS5003;34876;51.464;-0.150;2022-12-19T13:04:26;3;3;
49064;PMS5003;34876;51.464;-0.150;2022-12-19T13:07:02;4;4;
49064;PMS5003;34876;51.464;-0.150;2022-12-19T13:09:42;4;4;
49064;PMS5003;34876;51.464;-0.150;2022-12-19T13:12:14;4;4;
49064;PMS5003;34876;51.464;-0.150;2022-12-19T13:14:48;3;3;
49064;PMS5003;34876;51.464;-0.150;2022-12-19T13:17:23;4;4;
49064;PMS5003;34876;51.464;-0.150;2022-12-19T13:20:44;3;3;
49064;PMS5003;34876;51.464;-0.150;2022-12-19T13:23:20;3;3;
49064;PMS5003;34876;51.464;-0.150;2022-12-19T13:25:59;2;1;
49064;PMS5003;34876;51.464;-0.150;2022-12-19T13:28:35;3;3;
49064;PMS5003;34876;51.464;-0.150;2022-12-19T13:31:14;3;3;
49064;PMS5003;34876;51.464;-0.150;2022-12-19T13:33:45;3;3;
49064;PMS5003;34876;51.464;-0.150;2022-12-19T13:36:45;1;1;
49064;PMS5003;34876;51.464;-0.150;2022-12-19T13:39:23;4;4;
49064;PMS5003;34876;51.464;-0.150;2022-12-19T13:42:00;4;4;
49064;PMS5003;34876;51.464;-0.150;2022-12-19T13:44:35;4;4;
49064;PMS5003;34876;51.464;-0.150;2022-12-19T13:47:09;3;3;
49064;PMS5003;34876;51.464;-0.150;2022-12-19T13:49:40;5;4;
49064;PMS5003;34876;51.464;-0.150;2022-12-19T13:52:11;2;2;
49064;PMS5003;34876;51.464;-0.150;2022-12-19T13:54:44;3;3;
49064;PMS5003;34876;51.464;-0.150;2022-12-19T13:57:24;5;5;
49064;PMS5003;34876;51.464;-0.150;2022-12-19T13:59:56;4;4;
49064;PMS5003;34876;51.464;-0.150;2022-12-19T14:02:29;2;2;
49064;PMS5003;34876;51.464;-0.150;2022-12-19T14:05:00;4;4;
49064;PMS5003;34876;51.464;-0.150;2022-12-19T14:07:34;1;1;
49064;PMS5003;34876;51.464;-0.150;2022-12-19T14:10:05;3;3;
49064;PMS5003;34876;51.464;-0.150;2022-12-19T14:12:42;2;2;
49064;PMS5003;34876;51.464;-0.150;2022-12-19T14:15:22;3;3;
49064;PMS5003;34876;51.464;-0.150;2022-12-19T14:17:55;2;2;
49064;PMS5003;34876;51.464;-0.150;2022-12-19T14:20:27;4;4;
49064;PMS5003;34876;51.464;-0.150;2022-12-19T14:22:57;4;3;
49064;PMS5003;34876;51.464;-0.150;2022-12-19T14:25:30;3;3;
49064;PMS5003;34876;51.464;-0.150;2022-12-19T14:28:06;4;4;
49064;PMS5003;34876;51.464;-0.150;2022-12-19T14:30:40;3;2;
49064;PMS5003;34876;51.464;-0.150;2022-12-19T14:33:14;2;2;
49064;PMS5003;34876;51.464;-0.150;2022-12-19T14:35:46;2;2;
49064;PMS5003;34876;51.464;-0.150;2022-12-19T14:38:20;3;3;
49064;PMS5003;34876;51.464;-0.150;2022-12-19T14:40:55;2;2;
49064;PMS5003;34876;51.464;-0.150;2022-12-19T14:43:25;0;0;
49064;PMS5003;34876;51.464;-0.150;2022-12-19T14:46:08;1;1;
49064;PMS5003;34876;51.464;-0.150;2022-12-19T14:48:47;3;3;
49064;PMS5003;34876;51.464;-0.150;2022-12-19T14:51:19;3;2;
49064;PMS5003;34876;51.464;-0.150;2022-12-19T14:54:01;2;2;
49064;PMS5003;34876;51.464;-0.150;2022-12-19T14:56:40;3;2;
49064;PMS5003;34876;51.464;-0.150;2022-12-19T14:59:17;2;2;
49064;PMS5003;34876;51.464;-0.150;2022-12-19T15:01:57;3;3;
49064;PMS5003;34876;51.464;-0.150;2022-12-19T15:04:30;4;2;
49064;PMS5003;34876;51.464;-0.150;2022-12-19T15:07:01;2;2;
49064;PMS5003;34876;51.464;-0.150;2022-12-19T15:09:34;2;2;
49064;PMS5003;34876;51.464;-0.150;2022-12-19T15:12:11;2;2;
49064;PMS5003;34876;51.464;-0.150;2022-12-19T15:14:42;3;3;
49064;PMS5003;34876;51.464;-0.150;2022-12-19T15:17:16;3;3;
49064;PMS5003;34876;51.464;-0.150;2022-12-19T15:19:47;2;2;
49064;PMS5003;34876;51.464;-0.150;2022-12-19T15:22:16;1;1;
49064;PMS5003;34876;51.464;-0.150;2022-12-19T15:24:45;1;1;
49064;PMS5003;34876;51.464;-0.150;2022-12-19T15:27:15;2;2;
49064;PMS5003;34876;51.464;-0.150;2022-12-19T15:29:45;3;2;
49064;PMS5003;34876;51.464;-0.150;2022-12-19T15:32:15;3;3;
49064;PMS5003;34876;51.464;-0.150;2022-12-19T15:34:44;2;1;
49064;PMS5003;34876;51.464;-0.150;2022-12-19T15:37:13;4;3;
49064;PMS5003;34876;51.464;-0.150;2022-12-19T15:39:44;0;0;
49064;PMS5003;34876;51.464;-0.150;2022-12-19T15:42:15;2;2;
49064;PMS5003;34876;51.464;-0.150;2022-12-19T15:44:47;2;2;
49064;PMS5003;34876;51.464;-0.150;2022-12-19T15:47:20;3;3;
49064;PMS5003;34876;51.464;-0.150;2022-12-19T15:49:55;2;0;
49064;PMS5003;34876;51.464;-0.150;2022-12-19T15:52:24;3;3;
49064;PMS5003;34876;51.464;-0.150;2022-12-19T15:54:53;1;1;
49064;PMS5003;34876;51.464;-0.150;2022-12-19T15:57:24;0;0;
49064;PMS5003;34876;51.464;-0.150;2022-12-19T15:59:58;2;2;
49064;PMS5003;34876;51.464;-0.150;2022-12-19T16:02:29;2;2;
49064;PMS5003;34876;51.464;-0.150;2022-12-19T16:04:59;2;2;
49064;PMS5003;34876;51.464;-0.150;2022-12-19T16:07:28;2;2;
49064;PMS5003;34876;51.464;-0.150;2022-12-19T16:09:57;0;0;
49064;PMS5003;34876;51.464;-0.150;2022-12-19T16:12:26;1;1;
49064;PMS5003;34876;51.464;-0.150;2022-12-19T16:15:02;1;1;
49064;PMS5003;34876;51.464;-0.150;2022-12-19T16:17:31;2;2;
49064;PMS5003;34876;51.464;-0.150;2022-12-19T16:20:00;3;3;
49064;PMS5003;34876;51.464;-0.150;2022-12-19T16:22:29;1;1;
49064;PMS5003;34876;51.464;-0.150;2022-12-19T16:24:58;1;1;
49064;PMS5003;34876;51.464;-0.150;2022-12-19T16:27:29;2;2;
49064;PMS5003;34876;51.464;-0.150;2022-12-19T16:29:59;1;1;
49064;PMS5003;34876;51.464;-0.150;2022-12-19T16:32:38;0;0;
49064;PMS5003;34876;51.464;-0.150;2022-12-19T16:35:11;2;2;
49064;PMS5003;34876;51.464;-0.150;2022-12-19T16:37:41;1;1;
49064;PMS5003;34876;51.464;-0.150;2022-12-19T16:40:13;2;2;
49064;PMS5003;34876;51.464;-0.150;2022-12-19T16:42:44;1;1;
49064;PMS5003;34876;51.464;-0.150;2022-12-19T16:45:16;0;0;
49064;PMS5003;34876;51.464;-0.150;2022-12-19T16:47:47;1;1;
49064;PMS5003;34876;51.464;-0.150;2022-12-19T16:50:18;3;2;
49064;PMS5003;34876;51.464;-0.150;2022-12-19T16:52:51;1;1;
49064;PMS5003;34876;51.464;-0.150;2022-12-19T16:55:21;2;2;
49064;PMS5003;34876;51.464;-0.150;2022-12-19T16:57:53;3;1;